Pagrindinis puslapis
METAR-TAF:

METAR-TAF

Oro uostai :

Dalaman, Turkija

platuma: 36-42N, ilguma: 028-47E, Aukštis: 7 m

Dabartinis oras

Ataskaita buvo paskelbta 34 minutes, ne 05:50 UTC
Vėjas 6 kt iš Rytų/Šiaurės Rytų
Temperatūra 14°C
Drėgmė 82%
Slėgis 1010 hPa
Matomumas 10 km arba daugiau
nėra debesų žemiau 1500 m ir nėra kamuolinių lietaus debesų

METAR: LTBS 100550Z 06006KT CAVOK 14/11 Q1010 NOSIG

Laikas: 09:24 (06:24 UTC)

Prognozė

Ataskaita buvo paskelbta 1 valandą ir 44 minutes, ne 04:40 UTC
Prognozė galioja nuo 10 metu 06 UTC su 11 metu 06 UTC
Vėjas 2 kt nuo kintamojo kryptimis
Matomumas 10 km arba daugiau
nėra debesų žemiau 1500 m ir nėra kamuolinių lietaus debesų
Tapsmas
nuo 10 metu 07 UTC su 10 metu 09 UTC
Vėjas 12 kt iš Pietų/Pietvakarių
Išsisklaidę debesys ne aukštis 3000 ft
Tapsmas
nuo 10 metu 15 UTC su 10 metu 17 UTC
Vėjas 2 kt nuo kintamojo kryptimis
Matomumas 10 km arba daugiau
nėra debesų žemiau 1500 m ir nėra kamuolinių lietaus debesų

TAF: LTBS 100440Z 1006/1106 VRB02KT CAVOK BECMG 1007/1009 21012KT SCT030 BECMG 1015/1017 VRB02KT CAVOK

Orai ataskaitas ir orų prognozės (METAR, TAF).

turimą stotys yra geltonos ir raudonos taškus žemėlapyje.

Perkelti pele per norėdami pamatyti stoties vardą.

Tada spustelėkite, norėdami matyti oro stebėjimo ir prognozės.

Norėdami pakeisti žemėlapį: spustelėkite ant žalios mygtukų su juodo kryžiaus žemyn,; žalią mygtuką su brūkšneliu, jei norite nutolinti; arba žalių rodyklių gretimoms žemėlapius.


METAR-TAF: